Time;durP1;ratioP1;P1;durP2;ratioP2;P2;SDS_P1;SDS_P2;PMS_P1;PMS_P2;Temp;Humidity;BMP_temperature;BMP_pressure;BME280_temperature;BME280_humidity;BME280_pressure;Samples;Min_cycle;Max_cycle;Signal;HPM_P1;HPM_P2
2023/07/19 07:36:37;;;;;;;37.88;25.95;;;;;;;24.35;54.20;96448.34;2086975;28;20572;-64
2023/07/19 07:38:48;;;;;;;191.43;177.18;;;;;;;24.46;54.31;96452.59;2090921;28;20558;-64
2023/07/19 07:41:06;;;;;;;749.28;691.05;;;;;;;24.83;53.83;96451.41;2091422;27;20580;-64
2023/07/19 07:42:09;;;;;;;1167.45;999.90;;;;;;;24.60;51.49;96454.63;2090398;28;20628;-65
2023/07/19 07:44:28;;;;;;;1266.55;999.90;;;;;;;24.58;51.24;96453.13;2085640;28;20565;-65
2023/07/19 07:45:29;;;;;;;1219.57;999.90;;;;;;;24.90;51.97;96459.59;2078876;28;20193;-65
2023/07/19 07:47:52;;;;;;;861.17;788.88;;;;;;;25.16;51.16;96456.81;2101241;27;20570;-65
2023/07/19 07:48:59;;;;;;;1005.15;920.65;;;;;;;24.93;50.40;96456.63;2101479;28;20214;-64
2023/07/19 07:51:19;;;;;;;816.30;748.70;;;;;;;24.73;50.33;96450.72;2100995;27;20574;-65
2023/07/19 07:53:51;;;;;;;766.63;700.78;;;;;;;25.22;50.47;96460.69;2087335;28;20571;-64
2023/07/19 07:56:23;;;;;;;1321.10;999.90;;;;;;;25.36;48.81;96468.06;2085186;28;20889;-65
2023/07/19 07:58:57;;;;;;;1062.03;967.40;;;;;;;25.22;49.41;96461.50;2084523;28;20573;-65
2023/07/19 08:01:22;;;;;;;850.13;779.25;;;;;;;25.85;48.94;96467.22;2086043;28;21097;-65
2023/07/19 08:03:59;;;;;;;1058.75;963.78;;;;;;;25.61;48.96;96465.41;2107384;27;20543;-65
2023/07/19 08:06:21;;;;;;;1185.80;999.90;;;;;;;25.59;47.77;96472.75;2090490;28;20563;-65
2023/07/19 08:08:45;;;;;;;1278.00;999.90;;;;;;;25.54;47.57;96467.91;2083500;28;20568;-65
2023/07/19 08:11:09;;;;;;;1043.78;953.97;;;;;;;25.89;47.63;96468.56;2084535;28;20560;-65
2023/07/19 08:13:28;;;;;;;1166.07;999.90;;;;;;;26.14;48.28;96467.72;2085471;28;20569;-65
2023/07/19 08:15:48;;;;;;;911.53;837.17;;;;;;;26.15;47.85;96477.41;2084749;28;20568;-65
2023/07/19 08:18:08;;;;;;;1233.30;999.90;;;;;;;26.15;47.72;96474.72;2099472;27;20579;-65
2023/07/19 08:20:30;;;;;;;1191.22;999.90;;;;;;;26.17;47.25;96472.69;2085034;28;20563;-65
2023/07/19 08:22:54;;;;;;;1155.25;999.90;;;;;;;26.40;46.21;96478.19;2098493;27;20566;-65
2023/07/19 08:25:18;;;;;;;850.05;772.85;;;;;;;26.06;45.74;96466.72;2089966;28;20570;-65
2023/07/19 08:27:52;;;;;;;1096.10;997.55;;;;;;;26.48;46.77;96466.63;2085257;28;20567;-65
2023/07/19 08:30:17;;;;;;;1005.83;917.55;;;;;;;26.48;46.58;96463.94;2092934;27;20570;-65
2023/07/19 08:32:46;;;;;;;929.67;852.40;;;;;;;26.68;44.98;96462.50;2083965;28;20567;-65
2023/07/19 08:35:09;;;;;;;901.72;827.40;;;;;;;26.46;46.23;96457.91;2091683;28;21037;-65
2023/07/19 08:37:35;;;;;;;1040.25;950.58;;;;;;;26.63;45.72;96472.09;2104999;27;20921;-65
2023/07/19 08:40:02;;;;;;;990.20;903.42;;;;;;;26.50;44.93;96462.75;2102036;27;20547;-65
2023/07/19 08:42:30;;;;;;;897.47;821.47;;;;;;;26.82;46.06;96457.47;2104085;27;21499;-65
2023/07/19 08:44:59;;;;;;;1033.20;945.30;;;;;;;26.98;44.34;96457.38;2092438;28;21064;-65
2023/07/19 08:47:32;;;;;;;930.83;850.97;;;;;;;27.11;45.03;96453.25;2088479;28;21071;-65
2023/07/19 08:50:11;;;;;;;1006.65;922.33;;;;;;;27.71;44.28;96459.72;2090739;28;20630;-65
2023/07/19 08:52:54;;;;;;;1282.10;643.47;;;;;;;27.20;42.80;96452.22;2082640;28;21116;-65
2023/07/19 08:53:55;;;;;;;685.95;626.47;;;;;;;27.24;44.30;96456.19;2080540;28;20193;-66
2023/07/19 08:56:22;;;;;;;279.52;176.68;;;;;;;27.48;43.66;96449.03;2090839;28;20943;-65
2023/07/19 08:57:24;;;;;;;595.00;541.47;;;;;;;27.71;43.69;96449.00;2088809;28;20203;-65
2023/07/19 09:00:11;;;;;;;2250.00;999.90;;;;;;;27.54;43.67;96441.09;2107678;27;20594;-65
2023/07/19 09:01:13;;;;;;;2250.00;999.90;;;;;;;27.89;42.52;96437.91;2105724;28;20187;-66
2023/07/19 09:02:14;;;;;;;2250.00;999.90;;;;;;;28.09;43.05;96451.69;2109805;27;20194;-65
2023/07/19 09:05:06;;;;;;;2250.00;999.90;;;;;;;28.17;42.58;96442.69;2090988;28;20563;-65
2023/07/19 09:06:08;;;;;;;1313.22;689.13;;;;;;;27.79;41.95;96440.84;2090728;28;20719;-66
2023/07/19 09:07:12;;;;;;;2250.00;999.90;;;;;;;27.63;42.52;96439.19;2089491;27;20708;-64
2023/07/19 09:08:14;;;;;;;2250.00;999.90;;;;;;;27.98;42.40;96450.22;2081826;28;20204;-66
2023/07/19 09:09:19;;;;;;;2250.00;999.90;;;;;;;27.87;41.18;96448.00;2101223;28;20194;-66
2023/07/19 09:10:20;;;;;;;2250.00;999.90;;;;;;;27.56;41.73;96448.13;2098774;28;20256;-66
2023/07/19 09:11:22;;;;;;;2250.00;999.90;;;;;;;27.85;42.52;96442.00;2083105;28;20616;-66
2023/07/19 09:12:25;;;;;;;2250.00;999.90;;;;;;;28.17;41.41;96437.34;2080093;28;20196;-66
2023/07/19 09:13:30;;;;;;;2250.00;999.90;;;;;;;28.15;41.30;96440.22;2080908;28;20669;-66
2023/07/19 09:14:36;;;;;;;2250.00;999.90;;;;;;;28.08;41.39;96430.41;2082997;28;20197;-66
2023/07/19 09:15:38;;;;;;;2250.00;999.90;;;;;;;27.84;41.34;96435.78;2081274;28;20192;-66
2023/07/19 09:16:40;;;;;;;2250.00;999.90;;;;;;;27.88;40.94;96430.88;2082601;28;20200;-66
2023/07/19 09:17:46;;;;;;;2250.00;999.90;;;;;;;27.28;42.28;96430.69;2082846;28;20224;-65
2023/07/19 09:18:47;;;;;;;2250.00;999.90;;;;;;;27.53;42.79;96426.00;2081494;28;20200;-66
2023/07/19 09:19:50;;;;;;;2250.00;999.90;;;;;;;27.64;42.07;96427.44;2082797;28;20223;-66
2023/07/19 09:20:57;;;;;;;2250.00;999.90;;;;;;;27.67;42.88;96427.06;2081211;28;20295;-66
2023/07/19 09:22:03;;;;;;;2250.00;999.90;;;;;;;28.02;41.94;96424.72;2080772;28;20201;-66
2023/07/19 09:23:05;;;;;;;2250.00;999.90;;;;;;;28.32;42.27;96424.75;2080330;28;20248;-66
2023/07/19 09:24:08;;;;;;;2250.00;999.90;;;;;;;28.62;41.58;96423.88;2078349;28;20201;-66
2023/07/19 09:25:11;;;;;;;2250.00;999.90;;;;;;;28.66;40.74;96419.81;2078815;28;20335;-66
2023/07/19 09:26:12;;;;;;;2250.00;999.90;;;;;;;28.68;41.30;96425.84;2081770;28;20197;-66
2023/07/19 09:27:23;;;;;;;2266.67;999.90;;;;;;;28.29;40.78;96424.28;2081472;28;20354;-65
2023/07/19 09:31:05;;;;;;;2250.00;999.90;;;;;;;27.27;41.52;96420.16;2093609;27;20563;-65
2023/07/19 09:32:09;;;;;;;2250.00;999.90;;;;;;;27.62;42.23;96410.69;2088405;28;20643;-64
2023/07/19 09:33:15;;;;;;;2250.00;999.90;;;;;;;27.55;42.39;96415.09;2070008;28;20198;-65
2023/07/19 09:34:17;;;;;;;2250.00;999.90;;;;;;;27.89;41.52;96418.31;2067089;28;20616;-65
2023/07/19 09:35:26;;;;;;;2250.00;999.90;;;;;;;27.99;41.45;96413.53;2065562;28;20777;-65
2023/07/19 09:36:29;;;;;;;2250.00;999.90;;;;;;;28.16;41.72;96419.56;2068943;28;20261;-65
2023/07/19 09:37:31;;;;;;;2250.00;999.90;;;;;;;28.55;41.31;96415.75;2068811;28;20276;-65
2023/07/19 09:38:32;;;;;;;2250.00;999.90;;;;;;;28.72;41.16;96419.09;2070616;28;20319;-65
2023/07/19 09:39:35;;;;;;;2250.00;999.90;;;;;;;29.06;40.46;96412.22;2062730;28;20670;-66
2023/07/19 09:40:36;;;;;;;2250.00;999.90;;;;;;;29.01;40.22;96414.63;2062976;28;20284;-66
2023/07/19 09:41:38;;;;;;;2266.67;999.90;;;;;;;28.91;40.17;96416.81;2075600;28;20206;-66
2023/07/19 09:42:41;;;;;;;2250.00;999.90;;;;;;;28.01;40.46;96411.47;2072222;28;20454;-66
2023/07/19 09:43:44;;;;;;;2250.00;999.90;;;;;;;27.66;40.92;96414.66;2073970;28;20197;-66
2023/07/19 09:44:46;;;;;;;2250.00;999.90;;;;;;;27.76;40.41;96411.72;2072348;28;20563;-66
2023/07/19 09:45:50;;;;;;;2250.00;999.90;;;;;;;27.43;41.61;96409.34;2071970;28;20193;-66
2023/07/19 09:46:53;;;;;;;2250.00;999.90;;;;;;;27.59;41.68;96415.56;2071390;28;20202;-66
2023/07/19 09:47:56;;;;;;;2266.67;999.90;;;;;;;27.63;41.10;96414.19;2069047;28;20256;-65
2023/07/19 09:48:57;;;;;;;2250.00;999.90;;;;;;;27.71;40.62;96403.41;2075800;28;20439;-65
2023/07/19 09:49:59;;;;;;;2250.00;999.90;;;;;;;27.66;40.43;96408.47;2076454;28;20193;-65
2023/07/19 09:51:03;;;;;;;2250.00;999.90;;;;;;;27.81;40.33;96406.66;2072612;28;20272;-65
2023/07/19 09:52:05;;;;;;;2250.00;999.90;;;;;;;27.52;40.32;96408.25;2071052;28;20233;-65
2023/07/19 09:53:11;;;;;;;2250.00;999.90;;;;;;;27.77;40.92;96409.88;2072935;28;20282;-65
2023/07/19 09:54:14;;;;;;;2250.00;999.90;;;;;;;27.18;40.65;96406.81;2073557;28;20672;-65
2023/07/19 09:55:19;;;;;;;2250.00;999.90;;;;;;;27.27;40.68;96407.59;2073322;28;20198;-65
2023/07/19 09:56:20;;;;;;;2250.00;999.90;;;;;;;27.29;40.64;96394.84;2072129;28;20199;-66
2023/07/19 09:57:25;;;;;;;2250.00;999.90;;;;;;;26.97;40.87;96399.44;2068610;28;20197;-65
2023/07/19 09:58:29;;;;;;;2250.00;999.90;;;;;;;27.27;41.76;96390.69;2071090;28;20204;-66
2023/07/19 09:59:37;;;;;;;2250.00;999.90;;;;;;;27.92;40.50;96394.66;2071430;28;20198;-65
2023/07/19 10:00:40;;;;;;;2250.00;999.90;;;;;;;28.25;40.10;96396.16;2073244;28;20200;-65
2023/07/19 10:01:43;;;;;;;2250.00;999.90;;;;;;;28.93;40.37;96395.97;2072068;28;20198;-66
2023/07/19 10:02:45;;;;;;;2250.00;999.90;;;;;;;29.15;40.07;96396.78;2069464;28;20218;-62
2023/07/19 10:03:47;;;;;;;2250.00;999.90;;;;;;;29.23;39.58;96395.81;2072276;28;20202;-67
2023/07/19 10:04:50;;;;;;;2250.00;999.90;;;;;;;28.58;39.56;96393.06;2068470;28;20198;-64
2023/07/19 10:05:58;;;;;;;2250.00;999.90;;;;;;;28.55;39.95;96396.13;2074537;28;20264;-65
2023/07/19 10:07:11;;;;;;;2250.00;999.90;;;;;;;28.29;40.26;96392.06;2073066;28;20198;-66
2023/07/19 10:08:14;;;;;;;2250.00;999.90;;;;;;;28.07;41.17;96389.28;2073148;28;20233;-66
2023/07/19 10:09:22;;;;;;;2250.00;999.90;;;;;;;28.15;40.88;96402.63;2072507;28;20197;-65
2023/07/19 10:10:35;;;;;;;2250.00;999.90;;;;;;;28.93;41.06;96398.66;2070695;28;20221;-65
2023/07/19 10:11:36;;;;;;;2250.00;999.90;;;;;;;29.26;40.24;96396.28;2068944;28;20206;-65
2023/07/19 10:12:39;;;;;;;2250.00;999.90;;;;;;;29.03;39.70;96404.53;2069781;28;20227;-65
2023/07/19 10:13:56;;;;;;;2250.00;999.90;;;;;;;29.09;39.39;96406.47;2070699;28;20226;-66
2023/07/19 10:15:01;;;;;;;2250.00;999.90;;;;;;;29.08;39.41;96396.72;2072571;28;20213;-65
2023/07/19 10:16:02;;;;;;;2266.67;999.90;;;;;;;29.23;39.55;96391.31;2072910;28;20197;-65
2023/07/19 10:17:05;;;;;;;2266.67;999.90;;;;;;;29.18;39.95;96396.44;2089393;28;20491;-66
2023/07/19 10:18:12;;;;;;;2266.67;999.90;;;;;;;28.98;39.15;96388.97;2086054;28;20469;-66
2023/07/19 10:19:14;;;;;;;2266.67;999.90;;;;;;;28.68;39.49;96404.34;2073917;28;20954;-65
2023/07/19 10:20:15;;;;;;;2266.67;999.90;;;;;;;29.57;39.99;96391.59;2073794;28;20941;-65
2023/07/19 10:21:19;;;;;;;2266.67;999.90;;;;;;;30.13;39.29;96385.38;2071785;28;20522;-65
2023/07/19 10:22:20;;;;;;;2266.67;999.90;;;;;;;30.48;38.68;96388.09;2070497;28;20432;-65
2023/07/19 10:23:21;;;;;;;2266.67;999.90;;;;;;;30.18;39.59;96395.56;2072103;28;20457;-66
2023/07/19 10:24:23;;;;;;;2266.67;999.90;;;;;;;30.18;39.17;96387.50;2069031;28;20444;-66
2023/07/19 10:25:29;;;;;;;2266.67;999.90;;;;;;;30.25;39.64;96385.69;2071984;28;20497;-65
2023/07/19 10:26:31;;;;;;;2266.67;999.90;;;;;;;30.19;38.54;96391.84;2072400;28;21229;-68
2023/07/19 10:27:36;;;;;;;2266.67;999.90;;;;;;;29.59;39.67;96384.19;2072894;28;20544;-66
2023/07/19 10:28:38;;;;;;;2266.67;999.90;;;;;;;29.57;40.09;96388.91;2070866;28;20432;-66
2023/07/19 10:29:44;;;;;;;2266.67;999.90;;;;;;;29.26;40.00;96392.78;2070869;28;20437;-66
2023/07/19 10:30:56;;;;;;;2266.67;999.90;;;;;;;28.94;40.10;96395.78;2072855;28;20470;-66
2023/07/19 10:32:08;;;;;;;2266.67;999.90;;;;;;;28.92;40.89;96389.75;2072333;28;21335;-66
2023/07/19 10:33:10;;;;;;;2266.67;999.90;;;;;;;28.80;41.25;96391.28;2072085;28;21182;-66
2023/07/19 10:34:11;;;;;;;2266.67;999.90;;;;;;;28.75;41.20;96397.22;2073212;28;20956;-65
2023/07/19 10:35:32;;;;;;;2266.67;999.90;;;;;;;29.53;40.90;96398.41;2071982;28;20486;-66
2023/07/19 10:36:44;;;;;;;2266.67;999.90;;;;;;;29.86;40.27;96393.28;2071797;28;20972;-66
2023/07/19 10:37:52;;;;;;;2266.67;999.90;;;;;;;30.57;39.83;96394.13;2071411;28;20462;-66
2023/07/19 10:38:53;;;;;;;2266.67;999.90;;;;;;;30.76;38.40;96387.97;2070787;28;21193;-66
2023/07/19 10:39:55;;;;;;;2266.67;999.90;;;;;;;30.66;38.88;96394.78;2069949;28;21031;-66
2023/07/19 10:40:58;;;;;;;2266.67;999.90;;;;;;;30.71;38.40;96386.94;2067081;28;20424;-66
2023/07/19 10:42:00;;;;;;;2266.67;999.90;;;;;;;30.64;37.64;96386.06;2067949;28;20432;-66
2023/07/19 10:43:02;;;;;;;2266.67;999.90;;;;;;;29.88;38.45;96390.41;2064900;28;20680;-66
2023/07/19 10:44:04;;;;;;;2266.67;999.90;;;;;;;30.52;38.46;96389.34;2064789;28;20476;-65
2023/07/19 10:45:08;;;;;;;2266.67;999.90;;;;;;;30.40;38.60;96391.75;2065721;28;20435;-66
2023/07/19 10:46:10;;;;;;;2266.67;999.90;;;;;;;30.16;38.82;96393.09;2064510;28;20425;-66
2023/07/19 10:47:14;;;;;;;2266.67;999.90;;;;;;;30.10;38.50;96388.50;2061792;28;20478;-65
2023/07/19 10:48:16;;;;;;;2266.67;999.90;;;;;;;29.78;38.54;96388.06;2067710;28;20427;-65
2023/07/19 10:49:17;;;;;;;2266.67;999.90;;;;;;;29.49;38.30;96385.34;2067234;28;20424;-65
2023/07/19 10:50:24;;;;;;;2266.67;999.90;;;;;;;28.80;39.12;96381.34;2065991;28;20923;-66
2023/07/19 10:51:25;;;;;;;2266.67;999.90;;;;;;;29.10;39.53;96385.78;2067429;28;20475;-65
2023/07/19 10:52:27;;;;;;;2266.67;999.90;;;;;;;29.48;39.53;96381.00;2067281;28;20435;-65
2023/07/19 10:53:29;;;;;;;2266.67;999.90;;;;;;;29.70;40.17;96390.88;2068724;28;20433;-65
2023/07/19 10:54:30;;;;;;;2266.67;999.90;;;;;;;29.92;39.70;96386.31;2070557;28;20427;-65
2023/07/19 10:55:54;;;;;;;2266.67;999.90;;;;;;;29.40;39.21;96389.19;2069791;28;20439;-65
2023/07/19 10:56:57;;;;;;;2266.67;999.90;;;;;;;29.40;38.64;96394.56;2068572;28;20773;-65
2023/07/19 10:57:58;;;;;;;2266.67;999.90;;;;;;;28.94;39.07;96385.03;2067261;28;20455;-65
2023/07/19 10:59:00;;;;;;;2266.67;999.90;;;;;;;28.71;39.58;96390.56;2067831;28;20462;-65
2023/07/19 11:00:04;;;;;;;2266.67;999.90;;;;;;;28.82;39.61;96383.84;2066072;28;20455;-65
2023/07/19 11:01:06;;;;;;;2266.67;999.90;;;;;;;28.91;39.51;96384.56;2067776;28;20451;-65
2023/07/19 11:02:08;;;;;;;2266.67;999.90;;;;;;;28.93;39.80;96377.16;2068469;28;20451;-65
2023/07/19 11:03:14;;;;;;;2266.67;999.90;;;;;;;29.06;39.31;96382.66;2067387;28;20568;-65
2023/07/19 11:04:18;;;;;;;2266.67;999.90;;;;;;;29.18;39.27;96380.28;2066413;28;20445;-65
2023/07/19 11:05:20;;;;;;;2266.67;999.90;;;;;;;29.72;39.13;96383.44;2068404;28;20942;-65
2023/07/19 11:06:22;;;;;;;2266.67;999.90;;;;;;;29.55;38.77;96375.69;2066036;28;20514;-65
2023/07/19 11:07:31;;;;;;;2266.67;999.90;;;;;;;29.23;38.75;96377.88;2066721;28;20863;-65
2023/07/19 11:08:32;;;;;;;2266.67;999.90;;;;;;;28.90;38.95;96377.53;2084435;28;20515;-65
2023/07/19 11:09:34;;;;;;;2266.67;999.90;;;;;;;28.50;39.71;96373.34;2085301;28;20433;-65
2023/07/19 11:10:36;;;;;;;2266.67;999.90;;;;;;;28.21;40.90;96373.38;2067493;28;20476;-65
2023/07/19 11:11:38;;;;;;;2266.67;999.90;;;;;;;28.26;41.68;96371.78;2065734;28;20551;-65
2023/07/19 11:12:41;;;;;;;2266.67;999.90;;;;;;;28.48;41.49;96369.16;2064251;28;21034;-65
2023/07/19 11:13:45;;;;;;;2266.67;999.90;;;;;;;28.63;41.49;96371.84;2063709;28;20427;-65
2023/07/19 11:15:01;;;;;;;2266.67;999.90;;;;;;;28.88;41.12;96366.16;2065133;28;20778;-65
2023/07/19 11:16:04;;;;;;;2266.67;999.90;;;;;;;28.92;40.71;96365.56;2064838;28;20431;-65
2023/07/19 11:17:05;;;;;;;2266.67;999.90;;;;;;;28.83;40.92;96358.66;2062737;28;20828;-65
2023/07/19 11:18:07;;;;;;;2266.67;999.90;;;;;;;29.06;40.63;96360.31;2061546;28;20456;-65
2023/07/19 11:19:08;;;;;;;2266.67;999.90;;;;;;;28.86;40.32;96365.50;2064411;28;20535;-65
2023/07/19 11:20:12;;;;;;;2266.67;999.90;;;;;;;28.76;41.12;96365.81;2064854;28;20439;-65
2023/07/19 11:21:23;;;;;;;2266.67;999.90;;;;;;;28.91;41.22;96363.91;2067432;28;20463;-65
2023/07/19 11:22:27;;;;;;;2266.67;999.90;;;;;;;28.92;40.34;96354.81;2067828;28;20463;-65
2023/07/19 11:23:30;;;;;;;2266.67;999.90;;;;;;;28.92;40.83;96351.31;2069717;28;20427;-65
2023/07/19 11:24:39;;;;;;;2266.67;999.90;;;;;;;29.24;41.08;96358.03;2068452;28;21042;-65
2023/07/19 11:25:41;;;;;;;2266.67;999.90;;;;;;;29.45;39.82;96356.34;2067095;28;20443;-65
2023/07/19 11:27:01;;;;;;;2266.67;999.90;;;;;;;29.36;39.53;96352.97;2066565;28;20556;-65
2023/07/19 11:28:02;;;;;;;2266.67;999.90;;;;;;;29.39;39.92;96347.19;2065002;28;21087;-64
2023/07/19 11:29:06;;;;;;;2266.67;999.90;;;;;;;29.38;39.66;96350.94;2062092;28;20428;-65
2023/07/19 11:30:08;;;;;;;2266.67;999.90;;;;;;;29.00;38.96;96345.78;2064631;28;21036;-64
2023/07/19 11:31:11;;;;;;;2266.67;999.90;;;;;;;28.54;40.29;96351.50;2065352;28;20468;-64
2023/07/19 11:32:16;;;;;;;2266.67;999.90;;;;;;;28.21;41.22;96344.69;2066788;28;20968;-64
2023/07/19 11:33:18;;;;;;;2266.67;999.90;;;;;;;28.72;40.59;96345.72;2068711;28;20474;-65
2023/07/19 11:34:19;;;;;;;2266.67;999.90;;;;;;;28.91;40.34;96336.19;2065981;28;20479;-64
2023/07/19 11:35:26;;;;;;;2266.67;999.90;;;;;;;28.92;39.92;96341.38;2062553;28;20428;-64
2023/07/19 11:36:28;;;;;;;2266.67;999.90;;;;;;;29.18;40.72;96337.28;2064522;28;20559;-64
2023/07/19 11:37:32;;;;;;;2266.67;999.90;;;;;;;29.28;40.41;96345.88;2063288;28;20956;-64
2023/07/19 11:38:37;;;;;;;2266.67;999.90;;;;;;;29.77;40.09;96344.16;2066594;28;20600;-65
2023/07/19 11:39:38;;;;;;;2266.67;999.90;;;;;;;29.87;39.31;96348.38;2066818;28;20516;-65
2023/07/19 11:40:43;;;;;;;2266.67;999.90;;;;;;;29.92;39.95;96348.63;2067256;28;20425;-64
2023/07/19 11:41:46;;;;;;;2266.67;999.90;;;;;;;29.70;39.73;96339.75;2084920;28;20925;-64
2023/07/19 11:42:52;;;;;;;2266.67;999.90;;;;;;;29.56;39.75;96341.53;2082672;28;20461;-64
2023/07/19 11:43:53;;;;;;;2266.67;999.90;;;;;;;29.52;40.86;96337.56;2064526;28;20425;-64
2023/07/19 11:44:55;;;;;;;2266.67;999.90;;;;;;;29.19;40.05;96338.94;2068398;28;20456;-65
2023/07/19 11:45:56;;;;;;;2266.67;999.90;;;;;;;29.27;40.47;96340.69;2068340;28;20436;-64
2023/07/19 11:46:58;;;;;;;2266.67;999.90;;;;;;;29.25;40.79;96332.78;2069499;28;20947;-64
2023/07/19 11:48:01;;;;;;;2266.67;999.90;;;;;;;29.72;40.74;96338.53;2068566;28;20464;-64
2023/07/19 11:49:02;;;;;;;2266.67;999.90;;;;;;;30.19;39.75;96340.69;2067578;28;20416;-64
2023/07/19 11:50:05;;;;;;;2266.67;999.90;;;;;;;30.83;38.98;96336.81;2067295;28;20447;-64
2023/07/19 11:51:06;;;;;;;2266.67;999.90;;;;;;;30.92;38.52;96335.56;2065725;28;20459;-65
2023/07/19 11:52:09;;;;;;;2266.67;999.90;;;;;;;30.84;38.19;96327.66;2066956;28;20429;-64
2023/07/19 11:53:11;;;;;;;2266.67;999.90;;;;;;;30.74;37.52;96327.25;2066389;28;20496;-65
2023/07/19 11:54:15;;;;;;;2266.67;999.90;;;;;;;30.35;38.47;96332.28;2067295;28;20427;-64
2023/07/19 11:55:17;;;;;;;2266.67;999.90;;;;;;;30.73;38.55;96326.41;2067671;28;20435;-65
2023/07/19 11:56:19;;;;;;;2266.67;999.90;;;;;;;31.16;37.46;96319.03;2067976;28;20425;-64
2023/07/19 11:57:21;;;;;;;2266.67;999.90;;;;;;;30.89;37.86;96321.69;2066596;28;20433;-64
2023/07/19 11:58:23;;;;;;;2266.67;999.90;;;;;;;30.60;38.08;96318.28;2065848;28;20526;-64
2023/07/19 11:59:44;;;;;;;2266.67;999.90;;;;;;;30.35;38.33;96318.81;2067404;28;20441;-64
2023/07/19 12:00:46;;;;;;;2266.67;999.90;;;;;;;30.22;38.29;96316.06;2066443;28;20441;-65
2023/07/19 12:01:47;;;;;;;2266.67;999.90;;;;;;;30.39;38.74;96314.69;2066177;28;20419;-65
2023/07/19 12:02:51;;;;;;;2266.67;999.90;;;;;;;30.80;38.71;96314.81;2065275;28;20475;-64
2023/07/19 12:03:53;;;;;;;2266.67;999.90;;;;;;;30.48;38.98;96317.25;2063773;28;20916;-64
2023/07/19 12:04:56;;;;;;;2266.67;999.90;;;;;;;30.50;38.94;96312.47;2066316;28;20463;-64
2023/07/19 12:05:57;;;;;;;2266.67;999.90;;;;;;;30.45;39.09;96316.56;2064838;28;20436;-64
2023/07/19 12:06:59;;;;;;;2266.67;999.90;;;;;;;29.94;39.24;96308.88;2064950;28;21107;-64
2023/07/19 12:08:01;;;;;;;2266.67;999.90;;;;;;;30.21;38.80;96309.03;2065633;28;20452;-64
2023/07/19 12:09:02;;;;;;;2266.67;999.90;;;;;;;30.46;39.20;96302.06;2067024;28;20507;-65
2023/07/19 12:10:04;;;;;;;2266.67;999.90;;;;;;;30.80;38.35;96310.25;2082729;28;21104;-65
2023/07/19 12:11:06;;;;;;;2266.67;999.90;;;;;;;30.97;38.54;96301.78;2081551;28;20555;-65
2023/07/19 12:12:09;;;;;;;2266.67;999.90;;;;;;;31.07;38.53;96303.06;2068491;28;20481;-64
2023/07/19 12:13:10;;;;;;;2266.67;999.90;;;;;;;31.40;38.54;96306.78;2067011;28;20499;-65
2023/07/19 12:14:13;;;;;;;2266.67;999.90;;;;;;;31.50;38.17;96295.59;2065996;28;20940;-66
2023/07/19 12:15:15;;;;;;;2266.67;999.90;;;;;;;31.42;39.21;96307.41;2066877;28;20967;-65
2023/07/19 12:16:17;;;;;;;2266.67;999.90;;;;;;;31.61;39.39;96296.81;2065998;28;20424;-63
2023/07/19 12:17:18;;;;;;;2266.67;999.90;;;;;;;31.58;39.14;96303.47;2066267;28;20420;-62
2023/07/19 12:18:20;;;;;;;2266.67;999.90;;;;;;;31.61;39.06;96303.03;2066278;28;20427;-63
2023/07/19 12:19:22;;;;;;;2266.67;999.90;;;;;;;31.41;39.47;96313.84;2063788;28;20936;-62
2023/07/19 12:20:24;;;;;;;2266.67;999.90;;;;;;;31.50;39.12;96311.78;2065831;28;20524;-63
2023/07/19 12:21:25;;;;;;;2266.67;999.90;;;;;;;30.86;39.82;96311.31;2063265;28;21042;-62
2023/07/19 12:22:27;;;;;;;2266.67;999.90;;;;;;;31.17;39.45;96315.31;2065785;28;20517;-63
2023/07/19 12:23:30;;;;;;;2266.67;999.90;;;;;;;31.16;39.12;96310.94;2063811;28;21100;-63
2023/07/19 12:24:35;;;;;;;2266.67;999.90;;;;;;;30.43;40.50;96299.78;2068999;28;20677;-62
2023/07/19 12:25:37;;;;;;;2266.67;999.90;;;;;;;29.96;41.09;96307.66;2069460;28;20925;-62
2023/07/19 12:26:38;;;;;;;2266.67;999.90;;;;;;;29.86;40.86;96300.97;2070319;28;20427;-63
2023/07/19 12:27:41;;;;;;;2266.67;999.90;;;;;;;29.55;41.47;96302.25;2066466;28;20455;-62
2023/07/19 12:28:43;;;;;;;2266.67;999.90;;;;;;;29.55;41.38;96307.63;2066183;28;20427;-63
2023/07/19 12:29:44;;;;;;;2266.67;999.90;;;;;;;29.55;41.32;96300.38;2068185;28;20431;-62
2023/07/19 12:31:01;;;;;;;2266.67;999.90;;;;;;;28.90;41.68;96307.66;2069467;28;20459;-62
2023/07/19 12:32:03;;;;;;;2266.67;999.90;;;;;;;28.75;42.33;96302.38;2061391;28;20522;-62
2023/07/19 12:33:05;;;;;;;2266.67;999.90;;;;;;;28.66;42.93;96302.50;2063741;28;20459;-62
2023/07/19 12:34:06;;;;;;;2266.67;999.90;;;;;;;28.62;43.12;96297.66;2063992;28;20438;-62
2023/07/19 12:35:09;;;;;;;2266.67;999.90;;;;;;;28.55;43.30;96294.09;2068494;28;20431;-62
2023/07/19 12:36:10;;;;;;;2266.67;999.90;;;;;;;28.29;43.08;96292.75;2068899;28;20434;-62
2023/07/19 12:37:13;;;;;;;2266.67;999.90;;;;;;;27.94;43.58;96287.16;2066519;28;20440;-62
2023/07/19 12:38:15;;;;;;;2266.67;999.90;;;;;;;27.84;44.06;96293.63;2061518;28;20429;-62
2023/07/19 12:39:18;;;;;;;2266.67;999.90;;;;;;;27.81;43.54;96294.00;2064315;28;20436;-62
2023/07/19 12:40:20;;;;;;;2266.67;999.90;;;;;;;27.88;43.73;96288.72;2064061;28;20432;-62
2023/07/19 12:41:21;;;;;;;2266.67;999.90;;;;;;;27.97;43.34;96286.78;2063390;28;20432;-62
2023/07/19 12:42:24;;;;;;;2266.67;999.90;;;;;;;28.00;43.38;96281.03;2061483;28;20425;-62
2023/07/19 12:43:25;;;;;;;2266.67;999.90;;;;;;;27.73;43.46;96291.44;2065779;28;20835;-62
2023/07/19 12:44:27;;;;;;;2266.67;999.90;;;;;;;27.65;43.66;96283.47;2066284;28;20440;-62
2023/07/19 12:45:28;;;;;;;2250.00;999.90;;;;;;;27.74;43.87;96279.66;2066678;28;20428;-62
2023/07/19 12:46:29;;;;;;;2250.00;999.90;;;;;;;27.95;43.36;96273.53;2063504;28;20285;-62
2023/07/19 12:47:31;;;;;;;2250.00;999.90;;;;;;;28.16;42.80;96277.31;2066194;28;20372;-62
2023/07/19 12:48:33;;;;;;;2266.67;999.90;;;;;;;28.40;43.37;96273.47;2062142;28;20635;-62
2023/07/19 12:49:35;;;;;;;2250.00;999.90;;;;;;;28.92;43.07;96278.75;2066662;28;20834;-62
2023/07/19 12:50:39;;;;;;;2250.00;999.90;;;;;;;28.77;42.51;96278.81;2068470;28;20201;-62
2023/07/19 12:51:42;;;;;;;2250.00;999.90;;;;;;;28.50;42.72;96274.00;2069946;28;20641;-62
2023/07/19 12:52:44;;;;;;;2250.00;999.90;;;;;;;28.35;42.65;96275.88;2059976;28;20238;-62
2023/07/19 12:53:53;;;;;;;2250.00;999.90;;;;;;;28.26;43.12;96274.34;2060137;28;20702;-62
2023/07/19 12:54:56;;;;;;;2250.00;999.90;;;;;;;27.94;43.31;96263.81;2065393;28;20202;-61
2023/07/19 12:55:57;;;;;;;2250.00;999.90;;;;;;;28.33;43.65;96273.41;2068164;28;20284;-62
2023/07/19 12:56:59;;;;;;;2250.00;999.90;;;;;;;28.66;43.24;96272.94;2070067;28;20308;-61
2023/07/19 12:58:01;;;;;;;2250.00;999.90;;;;;;;28.62;43.52;96282.38;2065001;28;20275;-62
2023/07/19 12:59:02;;;;;;;2250.00;999.90;;;;;;;28.87;42.58;96268.59;2067481;28;20559;-62
2023/07/19 13:00:10;;;;;;;2250.00;999.90;;;;;;;29.13;43.30;96276.03;2067561;28;20308;-62
2023/07/19 13:01:12;;;;;;;2250.00;999.90;;;;;;;29.44;42.80;96274.84;2068057;28;20198;-62
2023/07/19 13:02:14;;;;;;;2250.00;999.90;;;;;;;29.47;42.96;96273.63;2064063;28;20593;-62
2023/07/19 13:03:15;;;;;;;2250.00;999.90;;;;;;;29.52;42.47;96275.72;2066385;28;20292;-62
2023/07/19 13:04:17;;;;;;;2266.67;999.90;;;;;;;29.62;42.68;96273.50;2067632;28;20295;-63
2023/07/19 13:05:18;;;;;;;2250.00;999.90;;;;;;;29.64;43.37;96279.53;2067131;28;20454;-62
2023/07/19 13:06:21;;;;;;;2266.67;999.90;;;;;;;28.91;43.68;96280.63;2063258;28;20234;-62
2023/07/19 13:07:23;;;;;;;2250.00;999.90;;;;;;;28.56;45.11;96280.47;2065181;28;20749;-62